createdAt,value
2023-09-12T00:00:14.871Z,8.60
2023-09-12T00:03:22.625Z,8.18
2023-09-12T00:06:25.999Z,9.02
2023-09-12T00:09:29.195Z,9.00
2023-09-12T00:12:32.065Z,8.70
2023-09-12T00:15:34.552Z,9.20
2023-09-12T00:18:37.388Z,8.65
2023-09-12T00:21:39.967Z,7.97
2023-09-12T00:24:42.538Z,9.07
2023-09-12T00:27:45.093Z,8.77
2023-09-12T00:30:47.812Z,8.80
2023-09-12T00:33:50.331Z,9.00
2023-09-12T00:36:52.889Z,9.20
2023-09-12T00:39:55.517Z,9.07
2023-09-12T00:42:59.774Z,8.90
2023-09-12T00:46:02.257Z,8.43
2023-09-12T00:49:07.460Z,9.55
2023-09-12T00:52:10.670Z,9.52
2023-09-12T00:55:13.217Z,9.10
2023-09-12T00:58:16.662Z,9.67
2023-09-12T01:01:22.460Z,8.97
2023-09-12T01:04:34.892Z,9.20
2023-09-12T01:07:40.291Z,9.02
2023-09-12T01:10:47.143Z,9.48
2023-09-12T01:13:49.702Z,9.73
2023-09-12T01:16:52.286Z,8.50
2023-09-12T01:19:55.238Z,9.77
2023-09-12T01:23:18.921Z,9.98
2023-09-12T01:26:42.092Z,9.63
2023-09-12T01:29:47.110Z,8.80
2023-09-12T01:32:50.872Z,9.97
2023-09-12T01:35:53.475Z,8.98
2023-09-12T01:38:56.241Z,8.68
2023-09-12T01:42:00.826Z,9.80
2023-09-12T01:45:04.913Z,10.17
2023-09-12T01:48:09.217Z,10.00
2023-09-12T01:51:12.912Z,10.85
2023-09-12T01:54:17.263Z,9.85
2023-09-12T01:57:23.718Z,9.85
2023-09-12T02:00:26.328Z,9.30
2023-09-12T02:03:29.358Z,9.70
2023-09-12T02:06:32.696Z,9.50
2023-09-12T02:09:35.306Z,9.63
2023-09-12T02:12:38.478Z,9.70
2023-09-12T02:15:41.217Z,10.00
2023-09-12T02:18:44.312Z,9.60
2023-09-12T02:21:47.039Z,9.82
2023-09-12T02:24:50.129Z,9.27
2023-09-12T02:27:52.695Z,9.13
2023-09-12T02:30:55.253Z,9.90
2023-09-12T02:33:57.757Z,9.60
2023-09-12T02:37:00.417Z,9.43
2023-09-12T02:40:06.398Z,9.07
2023-09-12T02:43:08.928Z,10.20
2023-09-12T02:46:11.479Z,9.80
2023-09-12T02:49:14.095Z,9.53
2023-09-12T02:52:16.600Z,9.25
2023-09-12T02:55:19.261Z,8.55
2023-09-12T02:58:22.404Z,9.32
2023-09-12T03:01:29.052Z,9.13
2023-09-12T03:04:36.261Z,10.13
2023-09-12T03:07:38.892Z,8.80
2023-09-12T03:10:41.423Z,9.98
2023-09-12T03:13:43.932Z,9.40
2023-09-12T03:16:46.625Z,9.73
2023-09-12T03:19:49.217Z,9.13
2023-09-12T03:22:51.784Z,9.10
2023-09-12T03:25:54.371Z,9.95
2023-09-12T03:28:57.099Z,10.18
2023-09-12T03:31:59.666Z,10.40
2023-09-12T03:35:02.215Z,9.53
2023-09-12T03:38:04.880Z,9.55
2023-09-12T03:41:07.627Z,9.80
2023-09-12T03:44:10.205Z,10.45
2023-09-12T03:47:14.133Z,10.13
2023-09-12T03:50:16.745Z,11.47
2023-09-12T03:53:19.266Z,10.23
2023-09-12T03:56:21.894Z,10.60
2023-09-12T03:59:24.583Z,10.10
2023-09-12T04:02:27.057Z,10.10
2023-09-12T04:05:29.690Z,10.03
2023-09-12T04:08:33.535Z,10.43
2023-09-12T04:11:46.196Z,10.88
2023-09-12T04:14:54.145Z,9.88
2023-09-12T04:17:56.936Z,10.67
2023-09-12T04:20:59.517Z,10.07
2023-09-12T04:24:02.185Z,9.88
2023-09-12T04:27:05.173Z,10.63
2023-09-12T04:30:10.078Z,9.93
2023-09-12T04:33:12.731Z,10.27
2023-09-12T04:36:15.283Z,10.67
2023-09-12T04:39:17.953Z,10.43
2023-09-12T04:42:20.651Z,9.80
2023-09-12T04:45:23.663Z,9.88
2023-09-12T04:48:26.458Z,9.93
2023-09-12T04:51:29.111Z,9.40
2023-09-12T04:54:31.687Z,10.75
2023-09-12T04:57:34.504Z,10.68
2023-09-12T05:00:37.226Z,10.35
2023-09-12T05:03:39.898Z,10.70
2023-09-12T05:06:43.209Z,10.80
2023-09-12T05:09:46.031Z,10.77
2023-09-12T05:12:48.706Z,11.52
2023-09-12T05:15:51.405Z,12.07
2023-09-12T05:18:54.432Z,11.40
2023-09-12T05:21:57.065Z,11.67
2023-09-12T05:24:59.676Z,11.02
2023-09-12T05:28:02.234Z,11.20
2023-09-12T05:31:05.026Z,11.23
2023-09-12T05:34:08.910Z,10.47
2023-09-12T05:37:11.492Z,11.63
2023-09-12T05:40:14.256Z,9.60
2023-09-12T05:43:20.257Z,10.60
2023-09-12T05:46:23.414Z,10.82
2023-09-12T05:49:26.156Z,9.90
2023-09-12T05:52:28.686Z,10.20
2023-09-12T05:55:31.679Z,11.38
2023-09-12T05:58:35.568Z,10.00
2023-09-12T06:01:40.408Z,10.07
2023-09-12T06:04:43.234Z,8.93
2023-09-12T06:07:48.110Z,9.53
2023-09-12T06:10:54.792Z,9.38
2023-09-12T06:13:57.353Z,8.85
2023-09-12T06:17:00.139Z,8.90
2023-09-12T06:20:04.845Z,9.17
2023-09-12T06:23:07.506Z,9.07
2023-09-12T06:26:10.030Z,9.32
2023-09-12T06:29:12.592Z,10.00
2023-09-12T06:32:16.460Z,9.10
2023-09-12T06:35:18.960Z,8.90
2023-09-12T06:38:23.479Z,9.17
2023-09-12T06:41:28.685Z,8.85
2023-09-12T06:44:31.335Z,9.25
2023-09-12T06:47:34.109Z,8.98
2023-09-12T06:50:39.146Z,8.63
2023-09-12T06:53:41.975Z,8.87
2023-09-12T06:56:44.864Z,8.60
2023-09-12T06:59:49.272Z,7.97
2023-09-12T07:02:52.220Z,8.32
2023-09-12T07:05:54.935Z,7.70
2023-09-12T07:08:58.274Z,8.10
2023-09-12T07:12:00.846Z,6.88
2023-09-12T07:15:03.727Z,8.02
2023-09-12T07:18:07.846Z,7.80
2023-09-12T07:21:12.515Z,8.20
2023-09-12T07:24:15.153Z,7.00
2023-09-12T07:27:17.779Z,7.88
2023-09-12T07:30:21.011Z,7.93
2023-09-12T07:33:24.269Z,7.93
2023-09-12T07:36:27.202Z,7.67
2023-09-12T07:39:31.093Z,7.47
2023-09-12T07:42:34.366Z,7.95
2023-09-12T07:45:39.875Z,8.15
2023-09-12T07:48:42.640Z,8.13
2023-09-12T07:51:45.660Z,7.93
2023-09-12T07:54:48.549Z,8.10
2023-09-12T07:57:51.284Z,7.85
2023-09-12T08:00:53.873Z,8.52
2023-09-12T08:03:56.622Z,8.55
2023-09-12T08:07:04.547Z,8.67
2023-09-12T08:10:08.390Z,8.20
2023-09-12T08:13:10.960Z,8.85
2023-09-12T08:16:13.722Z,9.10
2023-09-12T08:19:18.566Z,9.10
2023-09-12T08:22:23.627Z,8.87
2023-09-12T08:25:28.370Z,7.90
2023-09-12T08:28:31.237Z,7.03
2023-09-12T08:31:34.063Z,6.50
2023-09-12T08:34:37.017Z,7.00
2023-09-12T08:37:41.537Z,7.00
2023-09-12T08:40:52.622Z,6.60
2023-09-12T08:43:57.173Z,7.05
2023-09-12T08:47:01.898Z,7.07
2023-09-12T08:50:06.094Z,6.68
2023-09-12T08:53:10.247Z,7.10
2023-09-12T08:56:13.071Z,7.20
2023-09-12T08:59:16.795Z,6.10
2023-09-12T09:02:20.043Z,6.85
2023-09-12T09:05:24.355Z,6.28
2023-09-12T09:08:28.100Z,6.20
2023-09-12T09:11:31.975Z,6.77
2023-09-12T09:14:34.814Z,6.60
2023-09-12T09:17:41.091Z,7.13
2023-09-12T09:20:50.853Z,7.30
2023-09-12T09:23:55.002Z,7.93
2023-09-12T09:27:01.703Z,7.60
2023-09-12T09:30:04.613Z,7.22
2023-09-12T09:33:07.705Z,7.00
2023-09-12T09:36:10.273Z,7.00
2023-09-12T09:39:15.267Z,6.10
2023-09-12T09:42:17.981Z,7.33
2023-09-12T09:45:21.472Z,6.40
2023-09-12T09:48:28.460Z,6.88
2023-09-12T09:51:36.670Z,6.63
2023-09-12T09:54:48.951Z,6.80
2023-09-12T09:57:54.287Z,6.23
2023-09-12T10:00:57.268Z,6.10
2023-09-12T10:04:02.186Z,5.50
2023-09-12T10:07:07.446Z,5.28
2023-09-12T10:10:12.140Z,5.75
2023-09-12T10:13:16.235Z,4.87
2023-09-12T10:16:20.968Z,5.50
2023-09-12T10:19:26.766Z,5.63
2023-09-12T10:22:35.946Z,5.72
2023-09-12T10:25:39.703Z,5.80
2023-09-12T10:28:44.602Z,4.73
2023-09-12T10:31:48.636Z,5.15
2023-09-12T10:34:54.866Z,5.10
2023-09-12T10:38:01.440Z,4.78
2023-09-12T10:41:06.429Z,5.57
2023-09-12T10:44:17.507Z,5.80
2023-09-12T10:47:20.769Z,5.20
2023-09-12T10:50:23.574Z,5.63
2023-09-12T10:53:29.953Z,5.38
2023-09-12T10:56:33.720Z,5.22
2023-09-12T10:59:39.112Z,5.07
2023-09-12T11:02:43.272Z,5.60
2023-09-12T11:05:54.413Z,5.93
2023-09-12T11:09:18.758Z,5.03
2023-09-12T11:12:37.244Z,5.97
2023-09-12T11:16:13.285Z,5.60
2023-09-12T11:19:21.522Z,5.93
2023-09-12T11:22:27.010Z,5.93
2023-09-12T11:25:29.657Z,5.88
2023-09-12T11:28:32.671Z,5.95
2023-09-12T11:31:35.474Z,6.00
2023-09-12T11:34:41.694Z,5.50
2023-09-12T11:37:56.462Z,6.22
2023-09-12T11:41:00.462Z,6.57
2023-09-12T11:44:05.439Z,6.28
2023-09-12T11:47:12.113Z,6.40
2023-09-12T11:50:34.886Z,6.63
2023-09-12T11:53:37.517Z,5.55
2023-09-12T11:56:40.316Z,6.22
2023-09-12T11:59:50.094Z,5.90
2023-09-12T12:02:53.396Z,5.57
2023-09-12T12:05:57.106Z,5.75
2023-09-12T12:09:00.252Z,6.15
2023-09-12T12:12:15.616Z,6.05
2023-09-12T12:15:18.373Z,5.70
2023-09-12T12:18:21.073Z,6.10
2023-09-12T12:21:23.801Z,5.95
2023-09-12T12:24:26.546Z,5.80
2023-09-12T12:27:29.454Z,5.72
2023-09-12T12:30:34.550Z,5.50
2023-09-12T12:34:35.500Z,5.90
2023-09-12T12:37:00.152Z,6.00
2023-09-12T12:40:07.541Z,5.20
2023-09-12T12:43:20.925Z,6.10
2023-09-12T12:46:23.569Z,5.95
2023-09-12T12:49:26.455Z,6.57
2023-09-12T12:52:29.024Z,6.55
2023-09-12T12:55:31.660Z,6.10
2023-09-12T12:58:36.167Z,5.93
2023-09-12T13:01:40.416Z,5.57
2023-09-12T13:04:43.117Z,6.60
2023-09-12T13:07:45.823Z,5.97
2023-09-12T13:10:48.437Z,6.15
2023-09-12T13:13:51.186Z,5.97
2023-09-12T13:16:53.919Z,5.55
2023-09-12T13:19:56.499Z,6.03
2023-09-12T13:22:59.034Z,5.85
2023-09-12T13:26:01.676Z,5.55
2023-09-12T13:29:04.294Z,6.05
2023-09-12T13:32:07.307Z,5.72
2023-09-12T13:35:09.872Z,5.70
2023-09-12T13:38:12.944Z,5.95
2023-09-12T13:41:15.521Z,6.43
2023-09-12T13:44:18.901Z,5.68
2023-09-12T13:47:24.348Z,5.57
2023-09-12T13:50:30.906Z,5.87
2023-09-12T13:53:33.402Z,6.25
2023-09-12T13:56:36.899Z,5.65
2023-09-12T13:59:44.968Z,5.75
2023-09-12T14:02:50.257Z,6.18
2023-09-12T14:05:53.401Z,5.27
2023-09-12T14:08:57.188Z,5.50
2023-09-12T14:12:00.334Z,6.25
2023-09-12T14:15:08.647Z,6.00
2023-09-12T14:18:13.484Z,5.90
2023-09-12T14:21:17.526Z,5.23
2023-09-12T14:24:21.690Z,6.10
2023-09-12T14:27:27.119Z,5.80
2023-09-12T14:30:36.547Z,6.45
2023-09-12T14:33:39.126Z,5.82
2023-09-12T14:36:41.744Z,5.97
2023-09-12T14:39:44.643Z,5.72
2023-09-12T14:42:48.011Z,5.88
2023-09-12T14:45:50.747Z,5.85
2023-09-12T14:49:00.733Z,5.97
2023-09-12T14:52:14.280Z,5.80
2023-09-12T14:55:23.153Z,5.65
2023-09-12T14:58:25.730Z,5.93
2023-09-12T15:01:28.401Z,5.60
2023-09-12T15:04:31.314Z,5.45
2023-09-12T15:07:34.799Z,5.33
2023-09-12T15:10:37.262Z,5.60
2023-09-12T15:13:42.307Z,5.35
2023-09-12T15:16:45.322Z,6.38
2023-09-12T15:19:48.046Z,5.72
2023-09-12T15:22:50.631Z,5.47
2023-09-12T15:25:53.368Z,5.30
2023-09-12T15:28:56.026Z,5.60
2023-09-12T15:31:59.643Z,5.60
2023-09-12T15:35:04.156Z,4.88
2023-09-12T15:38:07.201Z,5.70
2023-09-12T15:41:09.804Z,5.07
2023-09-12T15:44:16.254Z,5.38
2023-09-12T15:47:20.848Z,5.20
2023-09-12T15:50:23.385Z,5.57
2023-09-12T15:53:26.285Z,5.30
2023-09-12T15:56:28.846Z,5.20
2023-09-12T15:59:32.635Z,4.75
2023-09-12T16:02:39.271Z,5.13
2023-09-12T16:05:41.867Z,5.00
2023-09-12T16:08:44.551Z,5.37
2023-09-12T16:11:47.135Z,5.50
2023-09-12T16:14:49.640Z,5.15
2023-09-12T16:17:52.162Z,5.22
2023-09-12T16:20:54.804Z,5.25
2023-09-12T16:23:59.860Z,4.63
2023-09-12T16:27:02.360Z,5.28
2023-09-12T16:30:09.392Z,4.80
2023-09-12T16:33:12.920Z,5.45
2023-09-12T16:36:15.472Z,5.28
2023-09-12T16:39:17.999Z,5.00
2023-09-12T16:42:20.575Z,5.07
2023-09-12T16:45:23.114Z,5.43
2023-09-12T16:48:25.680Z,4.93
2023-09-12T16:51:28.451Z,5.70
2023-09-12T16:54:31.437Z,5.87
2023-09-12T16:57:34.038Z,6.20
2023-09-12T17:00:36.625Z,5.82
2023-09-12T17:03:39.821Z,6.03
2023-09-12T17:06:44.670Z,5.63
2023-09-12T17:09:48.245Z,6.10
2023-09-12T17:12:50.764Z,5.82
2023-09-12T17:15:53.530Z,6.63
2023-09-12T17:18:56.171Z,6.50
2023-09-12T17:21:58.808Z,5.63
2023-09-12T17:25:01.332Z,6.87
2023-09-12T17:28:04.165Z,6.28
2023-09-12T17:31:06.777Z,6.60
2023-09-12T17:34:09.714Z,6.55
2023-09-12T17:37:13.143Z,6.80
2023-09-12T17:40:15.834Z,6.13
2023-09-12T17:43:18.290Z,6.43
2023-09-12T17:46:20.788Z,6.03
2023-09-12T17:49:23.305Z,7.25
2023-09-12T17:52:25.839Z,5.93
2023-09-12T17:55:28.555Z,6.27
2023-09-12T17:58:31.044Z,7.38
2023-09-12T18:01:33.842Z,7.40
2023-09-12T18:04:36.447Z,7.45
2023-09-12T18:07:39.105Z,7.30
2023-09-12T18:10:41.622Z,8.13
2023-09-12T18:13:47.504Z,8.60
2023-09-12T18:16:50.637Z,7.80
2023-09-12T18:19:54.014Z,7.00
2023-09-12T18:22:56.642Z,6.83
2023-09-12T18:26:03.278Z,6.90
2023-09-12T18:29:05.977Z,7.53
2023-09-12T18:32:08.714Z,6.78
2023-09-12T18:35:11.239Z,6.40
2023-09-12T18:38:13.844Z,7.23
2023-09-12T18:41:16.901Z,6.60
2023-09-12T18:44:20.268Z,6.72
2023-09-12T18:47:22.944Z,7.10
2023-09-12T18:50:26.624Z,7.20
2023-09-12T18:53:29.296Z,6.77
2023-09-12T18:56:32.111Z,6.60
2023-09-12T18:59:34.666Z,6.85
2023-09-12T19:02:38.995Z,5.90
2023-09-12T19:05:44.303Z,6.10
2023-09-12T19:08:47.070Z,6.63
2023-09-12T19:11:50.456Z,5.70
2023-09-12T19:14:53.574Z,6.93
2023-09-12T19:17:56.421Z,6.00
2023-09-12T19:20:59.123Z,6.18
2023-09-12T19:24:01.865Z,6.00
2023-09-12T19:27:04.737Z,6.33
2023-09-12T19:30:08.184Z,6.30
2023-09-12T19:33:11.354Z,6.72
2023-09-12T19:36:17.864Z,5.40
2023-09-12T19:39:20.520Z,6.17
2023-09-12T19:42:23.344Z,6.37
2023-09-12T19:45:26.219Z,6.97
2023-09-12T19:48:29.278Z,6.22
2023-09-12T19:51:31.843Z,5.80
2023-09-12T19:54:34.738Z,6.00
2023-09-12T19:57:37.323Z,6.97
2023-09-12T20:00:39.935Z,6.05
2023-09-12T20:03:42.877Z,6.25
2023-09-12T20:06:45.927Z,6.53
2023-09-12T20:09:48.529Z,7.00
2023-09-12T20:12:52.456Z,6.27
2023-09-12T20:15:55.238Z,6.40
2023-09-12T20:18:57.892Z,7.20
2023-09-12T20:22:00.734Z,7.25
2023-09-12T20:25:03.756Z,6.93
2023-09-12T20:28:06.629Z,6.07
2023-09-12T20:31:09.339Z,6.47
2023-09-12T20:34:11.806Z,7.03
2023-09-12T20:37:14.931Z,6.30
2023-09-12T20:40:17.587Z,6.80
2023-09-12T20:43:20.312Z,6.67
2023-09-12T20:46:22.862Z,6.95
2023-09-12T20:49:25.574Z,6.85
2023-09-12T20:52:28.068Z,7.00
2023-09-12T20:55:36.768Z,6.73
2023-09-12T20:58:39.238Z,6.93
2023-09-12T21:01:42.047Z,6.75
2023-09-12T21:04:45.950Z,7.35
2023-09-12T21:07:48.580Z,6.10
2023-09-12T21:10:51.113Z,6.63
2023-09-12T21:13:53.798Z,6.63
2023-09-12T21:16:56.455Z,7.45
2023-09-12T21:19:59.072Z,6.93
2023-09-12T21:23:03.905Z,6.72
2023-09-12T21:26:06.531Z,6.77
2023-09-12T21:29:09.035Z,6.67
2023-09-12T21:32:11.685Z,6.43
2023-09-12T21:35:19.906Z,6.68
2023-09-12T21:38:24.271Z,7.30
2023-09-12T21:41:26.779Z,6.47
2023-09-12T21:44:29.335Z,7.03
2023-09-12T21:47:32.335Z,6.55
2023-09-12T21:50:37.479Z,7.40
2023-09-12T21:53:40.248Z,6.88
2023-09-12T21:56:42.784Z,6.93
2023-09-12T21:59:45.234Z,6.87
2023-09-12T22:02:47.732Z,7.25
2023-09-12T22:05:50.589Z,6.45
2023-09-12T22:08:53.585Z,6.90
2023-09-12T22:11:56.122Z,7.03
2023-09-12T22:14:58.704Z,7.50
2023-09-12T22:18:01.142Z,7.30
2023-09-12T22:21:08.618Z,7.78
2023-09-12T22:24:11.044Z,7.65
2023-09-12T22:27:13.617Z,7.60
2023-09-12T22:30:16.176Z,7.77
2023-09-12T22:33:18.718Z,7.43
2023-09-12T22:36:21.279Z,7.25
2023-09-12T22:39:23.868Z,7.60
2023-09-12T22:42:26.402Z,7.70
2023-09-12T22:45:28.899Z,8.07
2023-09-12T22:48:31.469Z,6.88
2023-09-12T22:51:34.873Z,7.80
2023-09-12T22:54:37.410Z,7.93
2023-09-12T22:57:40.482Z,7.90
2023-09-12T23:00:43.449Z,7.93
2023-09-12T23:03:49.098Z,7.63
2023-09-12T23:06:52.614Z,7.93
2023-09-12T23:09:55.317Z,8.13
2023-09-12T23:12:57.895Z,7.73
2023-09-12T23:16:00.744Z,8.30
2023-09-12T23:19:03.909Z,8.30
2023-09-12T23:22:06.689Z,8.60
2023-09-12T23:25:10.972Z,8.68
2023-09-12T23:28:13.820Z,8.83
2023-09-12T23:31:16.497Z,8.57
2023-09-12T23:34:19.167Z,8.98
2023-09-12T23:37:23.553Z,8.15
2023-09-12T23:40:26.425Z,8.82
2023-09-12T23:43:29.439Z,9.10
2023-09-12T23:46:32.032Z,9.60
2023-09-12T23:49:34.638Z,9.07
2023-09-12T23:52:37.289Z,9.27
2023-09-12T23:55:39.911Z,10.07
2023-09-12T23:58:42.441Z,9.87
